Flight Track Log - Related Links

Times and Time Zones

All times are in EDT time to prevent confusion due to time zone crossing. See the N319EE flight status page for this flight to view local times or setup timezone preferences in your user account.

Time Position Orientation Groundspeed Altitude Reporting Facility
EDT Latitude Longitude Course Direction KTS MPH feet Rate Location/Type
Mon 08:48:53 AM 42.2097 -75.9381 61° Northeast 170 196 21,000  Level Boston Center
Mon 08:49:53 AM 42.2394 -75.8683 60° Northeast 189 217 4,300 -7,438 Descending Boston Center
Mon 08:50:54 AM 42.2633 -75.7972 66° East 198 228 6,000 1,561 Climbing Boston Center
Mon 08:51:56 AM 42.2903 -75.7253 63° Northeast 212 244 7,500 1,574 Climbing Boston Center
Mon 08:52:56 AM 42.3183 -75.6511 63° Northeast 218 251 9,200 1,645 Climbing Boston Center
Mon 08:54:00 AM 42.3644 -75.4822 61° Northeast  Level FlightAware Approximate
Mon 08:54:00 AM 42.3453 -75.5750 64° Northeast 222 255 10,900  Level Boston Center
Mon 08:55:01 AM 42.3733 -75.5000 63° Northeast 223 257 12,600 1,623 Climbing Boston Center
Mon 08:56:02 AM 42.4003 -75.4250 64° Northeast 222 255 14,200 1,623 Climbing Boston Center
Mon 08:57:03 AM 42.4258 -75.3486 66° East 223 257 15,900 1,623 Climbing Boston Center
Mon 08:58:04 AM 42.4539 -75.2747 63° Northeast 222 255 17,500 1,475 Climbing Boston Center
Mon 08:59:05 AM 42.4811 -75.2006 64° Northeast 222 255 18,900 1,475 Climbing Boston Center
Mon 09:00:06 AM 42.5133 -75.1139 63° Northeast 216 249 20,500 1,033 Climbing Boston Center
Mon 09:01:07 AM 42.5436 -75.0358 62° Northeast 231 266 21,000 246 Climbing Boston Center
Mon 09:02:08 AM 42.5789 -74.9422 63° Northeast 277 319 21,000  Level Boston Center
Mon 09:03:09 AM 42.6103 -74.8503 65° Northeast 286 329 21,000  Level Boston Center
Mon 09:04:12 AM 42.6483 -74.7511 62° Northeast 291 335 21,000  Level Boston Center
Mon 09:05:13 AM 42.6847 -74.6525 63° Northeast 292 336 21,000  Level Boston Center
Mon 09:06:13 AM 42.7283 -74.5336 63° Northeast 292 336 21,000  Level Boston Center
Mon 09:07:13 AM 42.7644 -74.4339 64° Northeast 292 336 21,000  Level Boston Center
Mon 09:08:17 AM 42.8011 -74.3367 63° Northeast 292 336 21,000  Level Boston Center
Mon 09:09:17 AM 42.8364 -74.2378 64° Northeast 292 336 21,000  Level Boston Center
Mon 09:10:18 AM 42.8722 -74.1400 63° Northeast 292 336 21,000  Level Boston Center
Mon 09:11:19 AM 42.9069 -74.0414 64° Northeast 290 334 21,000  Level Boston Center
Mon 09:12:23 AM 42.9419 -73.9436 64° Northeast 290 334 21,000  Level Boston Center
Mon 09:13:24 AM 42.9778 -73.8458 63° Northeast 290 334 21,000  Level Boston Center
Mon 09:14:24 AM 43.0131 -73.7472 64° Northeast 289 333 21,000  Level Boston Center
Mon 09:15:26 AM 43.0483 -73.6475 64° Northeast 289 333 21,000  Level Boston Center
Mon 09:16:26 AM 43.0833 -73.5483 64° Northeast 289 333 21,000  Level Boston Center
Mon 09:17:27 AM 43.1256 -73.4303 64° Northeast 289 333 21,000  Level Boston Center
Mon 09:18:30 AM 43.1597 -73.3308 65° Northeast 289 333 21,000  Level Boston Center
Mon 09:19:31 AM 43.1942 -73.2317 64° Northeast 289 333 21,000  Level Boston Center
Mon 09:20:32 AM 43.2289 -73.1339 64° Northeast 289 333 21,000  Level Boston Center
Mon 09:21:32 AM 43.2631 -73.0353 65° Northeast 288 331 21,000  Level Boston Center
Mon 09:22:35 AM 43.2969 -72.9375 65° Northeast 288 331 21,000  Level Boston Center
Mon 09:23:36 AM 43.3300 -72.8403 65° Northeast 287 330 21,000  Level Boston Center
Mon 09:24:36 AM 43.3633 -72.7428 65° Northeast 285 328 21,000  Level Boston Center
Mon 09:25:40 AM 43.3967 -72.6467 64° Northeast 284 327 21,000  Level Boston Center
Mon 09:26:41 AM 43.4286 -72.5514 65° Northeast 279 321 21,000  Level Boston Center
Mon 09:27:42 AM 43.4681 -72.4372 65° Northeast 278 320 21,000  Level Boston Center
Mon 09:28:42 AM 43.5006 -72.3403 65° Northeast 278 320 21,000  Level Boston Center
Mon 09:29:43 AM 43.5325 -72.2456 65° Northeast 278 320 21,000  Level Boston Center
Mon 09:30:47 AM 43.5656 -72.1486 65° Northeast 278 320 21,000  Level Boston Center
Mon 09:31:48 AM 43.5975 -72.0522 65° Northeast 278 320 21,000  Level Boston Center
Mon 09:32:49 AM 43.6292 -71.9556 66° East 278 320 21,000  Level Boston Center
Mon 09:33:50 AM 43.6608 -71.8586 66° East 278 320 21,000  Level Boston Center
Mon 09:34:51 AM 43.6936 -71.7617 65° Northeast 278 320 21,000  Level Boston Center
Mon 09:35:53 AM 43.7261 -71.6661 65° Northeast 278 320 21,000  Level Boston Center
Mon 09:36:54 AM 43.7631 -71.5475 67° East 278 320 21,000  Level Boston Center
Mon 09:37:54 AM 43.7908 -71.4564 67° East 279 321 21,000  Level Boston Center
Mon 09:38:57 AM 43.8206 -71.3553 68° East 281 323 21,000  Level Boston Center
Mon 09:39:58 AM 43.8514 -71.2542 67° East 281 323 21,000  Level Boston Center
Mon 09:40:58 AM 43.8811 -71.1528 68° East 282 325 21,000 -629 Level Boston Center
Mon 09:42:02 AM 43.9206 -71.0275 66° East 292 336 19,700 -1,597 Descending Boston Center
Mon 09:43:02 AM 43.9567 -70.9061 68° East 321 369 17,700 -1,983 Descending Boston Center
Mon 09:44:03 AM 43.9919 -70.7864 68° East 332 382 15,700 -2,000 Descending Boston Center
Mon 09:45:05 AM 44.0264 -70.6719 67° East 324 373 13,600 -1,968 Descending Boston Center
Mon 09:46:08 AM 44.0592 -70.5614 68° East 313 360 11,600 -1,984 Descending Boston Center
Mon 09:47:09 AM 44.0919 -70.4469 68° East 298 343 9,500 -1,869 Descending Boston Center
Mon 09:48:10 AM 44.1219 -70.3461 67° East 283 326 7,800 -1,736 Descending Boston Center
Mon 09:49:10 AM 44.1486 -70.2508 69° East 268 308 6,000 -1,645 Descending Boston Center
Mon 09:50:14 AM 44.1717 -70.1719 68° East 264 304 4,400 -1,500 Descending Boston Center

Login

Don't have an account? Register now (free) for customized features, flight alerts, and more!